sensor_id;sensor_type;location;lat;lon;timestamp;pressure;altitude;pressure_sealevel;temperature;humidity
14253;BME280;7210;51.502;10.722;2022-12-11T00:02:08;99149.16;;;-0.74;100.00
14253;BME280;7210;51.502;10.722;2022-12-11T00:04:40;99145.94;;;-0.84;100.00
14253;BME280;7210;51.502;10.722;2022-12-11T00:07:14;99140.94;;;-0.94;100.00
14253;BME280;7210;51.502;10.722;2022-12-11T00:09:42;99144.03;;;-0.98;100.00
14253;BME280;7210;51.502;10.722;2022-12-11T00:12:14;99149.56;;;-1.01;100.00
14253;BME280;7210;51.502;10.722;2022-12-11T00:14:50;99145.50;;;-1.04;100.00
14253;BME280;7210;51.502;10.722;2022-12-11T00:17:26;99155.09;;;-1.04;100.00
14253;BME280;7210;51.502;10.722;2022-12-11T00:19:55;99145.34;;;-1.10;100.00
14253;BME280;7210;51.502;10.722;2022-12-11T00:22:22;99147.94;;;-1.10;100.00
14253;BME280;7210;51.502;10.722;2022-12-11T00:25:14;99146.97;;;-1.09;100.00
14253;BME280;7210;51.502;10.722;2022-12-11T00:27:41;99160.91;;;-1.10;100.00
14253;BME280;7210;51.502;10.722;2022-12-11T00:30:20;99152.66;;;-1.06;100.00
14253;BME280;7210;51.502;10.722;2022-12-11T00:32:50;99161.53;;;-1.00;100.00
14253;BME280;7210;51.502;10.722;2022-12-11T00:35:19;99161.53;;;-1.00;100.00
14253;BME280;7210;51.502;10.722;2022-12-11T00:37:50;99157.19;;;-1.00;100.00
14253;BME280;7210;51.502;10.722;2022-12-11T00:40:18;99154.75;;;-1.01;100.00
14253;BME280;7210;51.502;10.722;2022-12-11T00:42:56;99155.09;;;-1.04;100.00
14253;BME280;7210;51.502;10.722;2022-12-11T00:45:24;99157.97;;;-0.99;100.00
14253;BME280;7210;51.502;10.722;2022-12-11T00:47:51;99165.59;;;-0.98;100.00
14253;BME280;7210;51.502;10.722;2022-12-11T00:50:28;99160.72;;;-1.01;100.00
14253;BME280;7210;51.502;10.722;2022-12-11T00:52:55;99151.50;;;-1.03;100.00
14253;BME280;7210;51.502;10.722;2022-12-11T00:55:38;99152.78;;;-1.07;100.00
14253;BME280;7210;51.502;10.722;2022-12-11T00:58:06;99157.66;;;-1.12;100.00
14253;BME280;7210;51.502;10.722;2022-12-11T01:00:39;99144.06;;;-1.22;100.00
14253;BME280;7210;51.502;10.722;2022-12-11T01:03:12;99138.59;;;-1.35;100.00
14253;BME280;7210;51.502;10.722;2022-12-11T01:05:41;99137.91;;;-1.45;100.00
14253;BME280;7210;51.502;10.722;2022-12-11T01:08:08;99146.03;;;-1.48;100.00
14253;BME280;7210;51.502;10.722;2022-12-11T01:10:36;99152.00;;;-1.48;100.00
14253;BME280;7210;51.502;10.722;2022-12-11T01:13:15;99158.00;;;-1.47;100.00
14253;BME280;7210;51.502;10.722;2022-12-11T01:15:44;99160.25;;;-1.52;100.00
14253;BME280;7210;51.502;10.722;2022-12-11T01:18:13;99171.59;;;-1.45;100.00
14253;BME280;7210;51.502;10.722;2022-12-11T01:20:42;99180.03;;;-1.43;100.00
14253;BME280;7210;51.502;10.722;2022-12-11T01:23:12;99168.84;;;-1.44;100.00
14253;BME280;7210;51.502;10.722;2022-12-11T01:25:40;99170.31;;;-1.49;100.00
14253;BME280;7210;51.502;10.722;2022-12-11T01:28:08;99166.41;;;-1.61;100.00
14253;BME280;7210;51.502;10.722;2022-12-11T01:30:36;99158.78;;;-1.71;100.00
14253;BME280;7210;51.502;10.722;2022-12-11T01:33:04;99165.09;;;-1.81;100.00
14253;BME280;7210;51.502;10.722;2022-12-11T01:35:33;99156.16;;;-1.87;100.00
14253;BME280;7210;51.502;10.722;2022-12-11T01:38:10;99156.31;;;-1.96;100.00
14253;BME280;7210;51.502;10.722;2022-12-11T01:40:45;99164.06;;;-2.04;100.00
14253;BME280;7210;51.502;10.722;2022-12-11T01:43:13;99161.75;;;-2.15;100.00
14253;BME280;7210;51.502;10.722;2022-12-11T01:45:41;99148.13;;;-2.33;100.00
14253;BME280;7210;51.502;10.722;2022-12-11T01:48:13;99160.22;;;-2.34;100.00
14253;BME280;7210;51.502;10.722;2022-12-11T01:50:48;99158.94;;;-2.38;100.00
14253;BME280;7210;51.502;10.722;2022-12-11T01:53:23;99154.53;;;-2.45;100.00
14253;BME280;7210;51.502;10.722;2022-12-11T01:55:56;99159.38;;;-2.50;100.00
14253;BME280;7210;51.502;10.722;2022-12-11T01:58:29;99168.56;;;-2.56;100.00
14253;BME280;7210;51.502;10.722;2022-12-11T02:00:59;99167.25;;;-2.60;100.00
14253;BME280;7210;51.502;10.722;2022-12-11T02:03:26;99171.91;;;-2.63;100.00
14253;BME280;7210;51.502;10.722;2022-12-11T02:05:58;99169.78;;;-2.68;100.00
14253;BME280;7210;51.502;10.722;2022-12-11T02:08:27;99167.34;;;-2.69;100.00
14253;BME280;7210;51.502;10.722;2022-12-11T02:11:08;99178.53;;;-2.69;100.00
14253;BME280;7210;51.502;10.722;2022-12-11T02:16:38;99174.97;;;-2.68;100.00
14253;BME280;7210;51.502;10.722;2022-12-11T02:19:30;99181.75;;;-2.67;100.00
14253;BME280;7210;51.502;10.722;2022-12-11T02:22:10;99181.94;;;-2.60;100.00
14253;BME280;7210;51.502;10.722;2022-12-11T02:25:01;99192.50;;;-2.54;100.00
14253;BME280;7210;51.502;10.722;2022-12-11T02:27:40;99193.50;;;-2.47;100.00
14253;BME280;7210;51.502;10.722;2022-12-11T02:30:14;99202.56;;;-2.43;100.00
14253;BME280;7210;51.502;10.722;2022-12-11T02:32:48;99201.31;;;-2.39;100.00
14253;BME280;7210;51.502;10.722;2022-12-11T02:35:21;99203.72;;;-2.37;100.00
14253;BME280;7210;51.502;10.722;2022-12-11T02:37:56;99203.09;;;-2.31;100.00
14253;BME280;7210;51.502;10.722;2022-12-11T02:40:30;99201.22;;;-2.13;100.00
14253;BME280;7210;51.502;10.722;2022-12-11T02:43:03;99206.47;;;-2.05;100.00
14253;BME280;7210;51.502;10.722;2022-12-11T02:45:35;99202.22;;;-2.06;100.00
14253;BME280;7210;51.502;10.722;2022-12-11T02:48:08;99203.56;;;-2.02;100.00
14253;BME280;7210;51.502;10.722;2022-12-11T02:50:42;99201.59;;;-2.00;100.00
14253;BME280;7210;51.502;10.722;2022-12-11T02:53:18;99194.34;;;-1.97;100.00
14253;BME280;7210;51.502;10.722;2022-12-11T02:55:59;99194.69;;;-1.92;100.00
14253;BME280;7210;51.502;10.722;2022-12-11T02:58:36;99198.41;;;-1.86;100.00
14253;BME280;7210;51.502;10.722;2022-12-11T03:01:11;99199.41;;;-1.79;100.00
14253;BME280;7210;51.502;10.722;2022-12-11T03:03:38;99197.16;;;-1.74;100.00
14253;BME280;7210;51.502;10.722;2022-12-11T03:06:08;99188.41;;;-1.73;100.00
14253;BME280;7210;51.502;10.722;2022-12-11T03:08:37;99184.03;;;-1.73;100.00
14253;BME280;7210;51.502;10.722;2022-12-11T03:11:09;99187.47;;;-1.64;100.00
14253;BME280;7210;51.502;10.722;2022-12-11T03:13:41;99180.66;;;-1.65;100.00
14253;BME280;7210;51.502;10.722;2022-12-11T03:16:20;99180.34;;;-1.62;100.00
14253;BME280;7210;51.502;10.722;2022-12-11T03:19:03;99173.53;;;-1.55;100.00
14253;BME280;7210;51.502;10.722;2022-12-11T03:21:39;99164.94;;;-1.56;100.00
14253;BME280;7210;51.502;10.722;2022-12-11T03:24:15;99160.09;;;-1.59;100.00
14253;BME280;7210;51.502;10.722;2022-12-11T03:26:53;99148.91;;;-1.59;100.00
14253;BME280;7210;51.502;10.722;2022-12-11T03:29:25;99151.84;;;-1.54;100.00
14253;BME280;7210;51.502;10.722;2022-12-11T03:32:06;99149.09;;;-1.53;100.00
14253;BME280;7210;51.502;10.722;2022-12-11T03:34:43;99143.59;;;-1.50;100.00
14253;BME280;7210;51.502;10.722;2022-12-11T03:37:13;99142.47;;;-1.47;100.00
14253;BME280;7210;51.502;10.722;2022-12-11T03:39:46;99142.13;;;-1.44;100.00
14253;BME280;7210;51.502;10.722;2022-12-11T03:42:17;99136.16;;;-1.45;100.00
14253;BME280;7210;51.502;10.722;2022-12-11T03:44:48;99139.38;;;-1.43;100.00
14253;BME280;7210;51.502;10.722;2022-12-11T03:47:22;99127.25;;;-1.42;100.00
14253;BME280;7210;51.502;10.722;2022-12-11T03:49:51;99127.06;;;-1.41;100.00
14253;BME280;7210;51.502;10.722;2022-12-11T03:52:21;99127.88;;;-1.40;100.00
14253;BME280;7210;51.502;10.722;2022-12-11T03:54:52;99130.13;;;-1.37;100.00
14253;BME280;7210;51.502;10.722;2022-12-11T03:57:24;99129.97;;;-1.36;100.00
14253;BME280;7210;51.502;10.722;2022-12-11T03:59:53;99129.00;;;-1.35;100.00
14253;BME280;7210;51.502;10.722;2022-12-11T04:02:22;99136.00;;;-1.35;100.00
14253;BME280;7210;51.502;10.722;2022-12-11T04:04:49;99135.66;;;-1.32;100.00
14253;BME280;7210;51.502;10.722;2022-12-11T04:07:16;99139.22;;;-1.33;100.00
14253;BME280;7210;51.502;10.722;2022-12-11T04:09:45;99131.75;;;-1.28;100.00
14253;BME280;7210;51.502;10.722;2022-12-11T04:12:12;99130.13;;;-1.29;100.00
14253;BME280;7210;51.502;10.722;2022-12-11T04:14:39;99133.38;;;-1.27;100.00
14253;BME280;7210;51.502;10.722;2022-12-11T04:17:25;99123.50;;;-1.24;100.00
14253;BME280;7210;51.502;10.722;2022-12-11T04:20:11;99127.03;;;-1.25;100.00
14253;BME280;7210;51.502;10.722;2022-12-11T04:22:56;99118.63;;;-1.27;100.00
14253;BME280;7210;51.502;10.722;2022-12-11T04:25:45;99119.25;;;-1.25;100.00
14253;BME280;7210;51.502;10.722;2022-12-11T04:28:12;99114.75;;;-1.23;100.00
14253;BME280;7210;51.502;10.722;2022-12-11T04:30:48;99118.63;;;-1.19;100.00
14253;BME280;7210;51.502;10.722;2022-12-11T04:33:17;99116.84;;;-1.18;100.00
14253;BME280;7210;51.502;10.722;2022-12-11T04:35:45;99111.66;;;-1.18;100.00
14253;BME280;7210;51.502;10.722;2022-12-11T04:38:12;99100.00;;;-1.22;100.00
14253;BME280;7210;51.502;10.722;2022-12-11T04:40:45;99102.44;;;-1.21;100.00
14253;BME280;7210;51.502;10.722;2022-12-11T04:43:15;99102.09;;;-1.18;100.00
14253;BME280;7210;51.502;10.722;2022-12-11T04:45:42;99092.53;;;-1.17;100.00
14253;BME280;7210;51.502;10.722;2022-12-11T04:48:09;99094.16;;;-1.16;100.00
14253;BME280;7210;51.502;10.722;2022-12-11T04:50:38;99084.44;;;-1.22;100.00
14253;BME280;7210;51.502;10.722;2022-12-11T04:53:05;99089.31;;;-1.19;100.00
14253;BME280;7210;51.502;10.722;2022-12-11T04:55:32;99084.44;;;-1.22;100.00
14253;BME280;7210;51.502;10.722;2022-12-11T04:58:00;99077.28;;;-1.20;100.00
14253;BME280;7210;51.502;10.722;2022-12-11T05:00:27;99069.84;;;-1.15;100.00
14253;BME280;7210;51.502;10.722;2022-12-11T05:02:54;99057.03;;;-1.17;100.00
14253;BME280;7210;51.502;10.722;2022-12-11T05:05:21;99064.19;;;-1.19;100.00
14253;BME280;7210;51.502;10.722;2022-12-11T05:07:50;99062.22;;;-1.17;100.00
14253;BME280;7210;51.502;10.722;2022-12-11T05:10:18;99046.66;;;-1.17;100.00
14253;BME280;7210;51.502;10.722;2022-12-11T05:12:51;99044.06;;;-1.17;100.00
14253;BME280;7210;51.502;10.722;2022-12-11T05:15:18;99037.13;;;-1.16;100.00
14253;BME280;7210;51.502;10.722;2022-12-11T05:17:45;99031.09;;;-1.17;100.00
14253;BME280;7210;51.502;10.722;2022-12-11T05:20:12;99026.44;;;-1.21;100.00
14253;BME280;7210;51.502;10.722;2022-12-11T05:22:45;99020.25;;;-1.20;100.00
14253;BME280;7210;51.502;10.722;2022-12-11T05:25:14;99022.84;;;-1.20;100.00
14253;BME280;7210;51.502;10.722;2022-12-11T05:27:42;99002.13;;;-1.28;100.00
14253;BME280;7210;51.502;10.722;2022-12-11T05:30:10;99012.19;;;-1.25;100.00
14253;BME280;7210;51.502;10.722;2022-12-11T05:32:37;99007.31;;;-1.28;100.00
14253;BME280;7210;51.502;10.722;2022-12-11T05:35:06;99011.56;;;-1.27;100.00
14253;BME280;7210;51.502;10.722;2022-12-11T05:37:33;99015.75;;;-1.26;100.00
14253;BME280;7210;51.502;10.722;2022-12-11T05:40:01;99008.97;;;-1.27;100.00
14253;BME280;7210;51.502;10.722;2022-12-11T05:42:32;99007.66;;;-1.31;100.00
14253;BME280;7210;51.502;10.722;2022-12-11T05:45:00;99001.84;;;-1.33;100.00
14253;BME280;7210;51.502;10.722;2022-12-11T05:47:33;99005.72;;;-1.29;100.00
14253;BME280;7210;51.502;10.722;2022-12-11T05:50:00;99002.47;;;-1.31;100.00
14253;BME280;7210;51.502;10.722;2022-12-11T05:52:27;98994.72;;;-1.31;100.00
14253;BME280;7210;51.502;10.722;2022-12-11T05:54:55;98975.94;;;-1.33;100.00
14253;BME280;7210;51.502;10.722;2022-12-11T05:57:22;98986.94;;;-1.31;100.00
14253;BME280;7210;51.502;10.722;2022-12-11T05:59:51;98970.91;;;-1.35;100.00
14253;BME280;7210;51.502;10.722;2022-12-11T06:02:18;98958.56;;;-1.33;99.46
14253;BME280;7210;51.502;10.722;2022-12-11T06:04:45;98944.19;;;-1.35;98.63
14253;BME280;7210;51.502;10.722;2022-12-11T06:07:13;98940.91;;;-1.29;97.64
14253;BME280;7210;51.502;10.722;2022-12-11T06:09:42;98917.94;;;-1.32;96.38
14253;BME280;7210;51.502;10.722;2022-12-11T06:12:10;98927.63;;;-1.26;96.38
14253;BME280;7210;51.502;10.722;2022-12-11T06:14:37;98918.06;;;-1.26;95.82
14253;BME280;7210;51.502;10.722;2022-12-11T06:17:10;98912.41;;;-1.29;95.94
14253;BME280;7210;51.502;10.722;2022-12-11T06:19:38;98917.25;;;-1.26;95.36
14253;BME280;7210;51.502;10.722;2022-12-11T06:22:05;98922.44;;;-1.26;95.52
14253;BME280;7210;51.502;10.722;2022-12-11T06:24:32;98917.59;;;-1.29;95.15
14253;BME280;7210;51.502;10.722;2022-12-11T06:27:00;98919.91;;;-1.34;94.79
14253;BME280;7210;51.502;10.722;2022-12-11T06:29:33;98924.59;;;-1.38;95.55
14253;BME280;7210;51.502;10.722;2022-12-11T06:32:10;98925.75;;;-1.40;94.84
14253;BME280;7210;51.502;10.722;2022-12-11T06:34:37;98916.66;;;-1.44;94.62
14253;BME280;7210;51.502;10.722;2022-12-11T06:37:15;98913.78;;;-1.49;94.46
14253;BME280;7210;51.502;10.722;2022-12-11T06:39:42;98912.34;;;-1.52;94.08
14253;BME280;7210;51.502;10.722;2022-12-11T06:42:09;98884.06;;;-1.69;93.68
14253;BME280;7210;51.502;10.722;2022-12-11T06:44:39;98899.06;;;-1.57;93.03
14253;BME280;7210;51.502;10.722;2022-12-11T06:47:06;98899.06;;;-1.57;92.70
14253;BME280;7210;51.502;10.722;2022-12-11T06:49:35;98895.03;;;-1.59;92.49
14253;BME280;7210;51.502;10.722;2022-12-11T06:52:02;98887.75;;;-1.64;92.38
14253;BME280;7210;51.502;10.722;2022-12-11T06:54:33;98890.34;;;-1.64;92.59
14253;BME280;7210;51.502;10.722;2022-12-11T06:57:00;98901.19;;;-1.60;93.49
14253;BME280;7210;51.502;10.722;2022-12-11T06:59:27;98915.09;;;-1.53;93.21
14253;BME280;7210;51.502;10.722;2022-12-11T07:01:55;98919.59;;;-1.47;93.83
14253;BME280;7210;51.502;10.722;2022-12-11T07:04:22;98920.91;;;-1.43;93.74
14253;BME280;7210;51.502;10.722;2022-12-11T07:06:53;98925.06;;;-1.34;92.96
14253;BME280;7210;51.502;10.722;2022-12-11T07:09:20;98921.50;;;-1.33;92.70
14253;BME280;7210;51.502;10.722;2022-12-11T07:11:49;98920.53;;;-1.32;92.43
14253;BME280;7210;51.502;10.722;2022-12-11T07:14:16;98913.88;;;-1.35;92.48
14253;BME280;7210;51.502;10.722;2022-12-11T07:16:51;98923.75;;;-1.30;92.16
14253;BME280;7210;51.502;10.722;2022-12-11T07:19:21;98922.78;;;-1.29;91.76
14253;BME280;7210;51.502;10.722;2022-12-11T07:21:48;98929.56;;;-1.28;92.70
14253;BME280;7210;51.502;10.722;2022-12-11T07:24:18;98929.41;;;-1.27;92.40
14253;BME280;7210;51.502;10.722;2022-12-11T07:26:46;98937.31;;;-1.20;91.42
14253;BME280;7210;51.502;10.722;2022-12-11T07:29:13;98944.59;;;-1.16;91.49
14253;BME280;7210;51.502;10.722;2022-12-11T07:31:41;98937.75;;;-1.09;91.81
14253;BME280;7210;51.502;10.722;2022-12-11T07:34:12;98924.34;;;-1.20;91.92
14253;BME280;7210;51.502;10.722;2022-12-11T07:36:40;98922.41;;;-1.18;91.49
14253;BME280;7210;51.502;10.722;2022-12-11T07:39:10;98925.00;;;-1.18;90.60
14253;BME280;7210;51.502;10.722;2022-12-11T07:41:39;98932.78;;;-1.18;91.05
14253;BME280;7210;51.502;10.722;2022-12-11T07:44:09;98936.16;;;-1.18;90.78
14253;BME280;7210;51.502;10.722;2022-12-11T07:46:37;98947.81;;;-1.14;91.22
14253;BME280;7210;51.502;10.722;2022-12-11T07:49:05;98954.13;;;-1.08;91.18
14253;BME280;7210;51.502;10.722;2022-12-11T07:51:39;98959.94;;;-1.06;91.45
14253;BME280;7210;51.502;10.722;2022-12-11T07:54:11;98960.13;;;-1.08;91.38
14253;BME280;7210;51.502;10.722;2022-12-11T07:56:43;98991.34;;;-0.93;92.44
14253;BME280;7210;51.502;10.722;2022-12-11T07:59:11;98997.16;;;-0.91;92.22
14253;BME280;7210;51.502;10.722;2022-12-11T08:01:39;99001.50;;;-0.84;92.47
14253;BME280;7210;51.502;10.722;2022-12-11T08:04:15;99007.97;;;-0.80;92.03
14253;BME280;7210;51.502;10.722;2022-12-11T08:06:42;99005.19;;;-0.78;92.08
14253;BME280;7210;51.502;10.722;2022-12-11T08:09:12;99005.53;;;-0.81;91.91
14253;BME280;7210;51.502;10.722;2022-12-11T08:11:47;98980.44;;;-0.89;91.22
14253;BME280;7210;51.502;10.722;2022-12-11T08:14:15;98975.59;;;-0.92;91.50
14253;BME280;7210;51.502;10.722;2022-12-11T08:16:42;98953.91;;;-0.99;90.78
14253;BME280;7210;51.502;10.722;2022-12-11T08:19:10;98967.63;;;-0.90;89.80
14253;BME280;7210;51.502;10.722;2022-12-11T08:21:45;98940.75;;;-0.97;89.38
14253;BME280;7210;51.502;10.722;2022-12-11T08:24:13;98937.38;;;-0.98;88.81
14253;BME280;7210;51.502;10.722;2022-12-11T08:26:41;98944.66;;;-0.93;89.20
14253;BME280;7210;51.502;10.722;2022-12-11T08:29:16;98929.44;;;-0.96;88.38
14253;BME280;7210;51.502;10.722;2022-12-11T08:31:44;98928.16;;;-1.00;88.19
14253;BME280;7210;51.502;10.722;2022-12-11T08:34:11;98928.78;;;-0.98;87.57
14253;BME280;7210;51.502;10.722;2022-12-11T08:36:39;98934.28;;;-0.93;88.42
14253;BME280;7210;51.502;10.722;2022-12-11T08:39:07;98926.81;;;-0.88;87.60
14253;BME280;7210;51.502;10.722;2022-12-11T08:41:34;98930.13;;;-0.80;87.49
14253;BME280;7210;51.502;10.722;2022-12-11T08:44:01;98930.81;;;-0.86;87.36
14253;BME280;7210;51.502;10.722;2022-12-11T08:46:31;98933.72;;;-0.81;87.38
14253;BME280;7210;51.502;10.722;2022-12-11T08:48:59;98926.44;;;-0.85;86.68
14253;BME280;7210;51.502;10.722;2022-12-11T08:51:28;98926.59;;;-0.87;86.67
14253;BME280;7210;51.502;10.722;2022-12-11T08:53:59;98939.06;;;-0.82;86.71
14253;BME280;7210;51.502;10.722;2022-12-11T08:56:28;98949.75;;;-0.77;87.00
14253;BME280;7210;51.502;10.722;2022-12-11T08:58:59;98949.75;;;-0.77;87.31
14253;BME280;7210;51.502;10.722;2022-12-11T09:01:28;98950.56;;;-0.77;87.16
14253;BME280;7210;51.502;10.722;2022-12-11T09:03:57;98969.63;;;-0.70;87.10
14253;BME280;7210;51.502;10.722;2022-12-11T09:06:27;98978.25;;;-0.69;87.69
14253;BME280;7210;51.502;10.722;2022-12-11T09:08:59;98978.25;;;-0.69;87.00
14253;BME280;7210;51.502;10.722;2022-12-11T09:11:29;98983.44;;;-0.69;87.03
14253;BME280;7210;51.502;10.722;2022-12-11T09:13:58;98988.72;;;-0.63;86.75
14253;BME280;7210;51.502;10.722;2022-12-11T09:16:26;98976.41;;;-0.61;86.96
14253;BME280;7210;51.502;10.722;2022-12-11T09:18:58;98964.06;;;-0.59;86.33
14253;BME280;7210;51.502;10.722;2022-12-11T09:21:28;98963.72;;;-0.56;86.13
14253;BME280;7210;51.502;10.722;2022-12-11T09:23:58;98951.63;;;-0.63;86.51
14253;BME280;7210;51.502;10.722;2022-12-11T09:26:27;98950.00;;;-0.64;85.88
14253;BME280;7210;51.502;10.722;2022-12-11T09:28:55;98963.59;;;-0.62;85.49
14253;BME280;7210;51.502;10.722;2022-12-11T09:31:25;98977.66;;;-0.57;85.85
14253;BME280;7210;51.502;10.722;2022-12-11T09:33:57;98996.78;;;-0.50;86.45
14253;BME280;7210;51.502;10.722;2022-12-11T09:36:25;99001.44;;;-0.45;86.28
14253;BME280;7210;51.502;10.722;2022-12-11T09:38:53;99003.06;;;-0.44;86.62
14253;BME280;7210;51.502;10.722;2022-12-11T09:41:34;99009.53;;;-0.40;87.18
14253;BME280;7210;51.502;10.722;2022-12-11T09:44:21;98988.81;;;-0.48;86.51
14253;BME280;7210;51.502;10.722;2022-12-11T09:46:51;98974.25;;;-0.49;85.66
14253;BME280;7210;51.502;10.722;2022-12-11T09:49:34;98989.09;;;-0.43;85.98
14253;BME280;7210;51.502;10.722;2022-12-11T09:52:15;98995.22;;;-0.36;86.37
14253;BME280;7210;51.502;10.722;2022-12-11T09:54:51;98995.22;;;-0.36;86.00
14253;BME280;7210;51.502;10.722;2022-12-11T09:57:39;99009.31;;;-0.31;86.46
14253;BME280;7210;51.502;10.722;2022-12-11T10:00:23;99029.53;;;-0.18;86.35
14253;BME280;7210;51.502;10.722;2022-12-11T10:03:18;99024.13;;;-0.17;85.92
14253;BME280;7210;51.502;10.722;2022-12-11T10:06:08;99014.63;;;-0.24;86.54
14253;BME280;7210;51.502;10.722;2022-12-11T10:08:50;99039.25;;;-0.20;87.50
14253;BME280;7210;51.502;10.722;2022-12-11T10:11:39;99043.47;;;-0.19;86.82
14253;BME280;7210;51.502;10.722;2022-12-11T10:14:19;99028.59;;;-0.25;86.83
14253;BME280;7210;51.502;10.722;2022-12-11T10:16:53;99019.25;;;-0.34;86.60
14253;BME280;7210;51.502;10.722;2022-12-11T10:19:27;99053.16;;;-0.13;86.75
14253;BME280;7210;51.502;10.722;2022-12-11T10:22:00;99039.19;;;-0.13;86.73
14253;BME280;7210;51.502;10.722;2022-12-11T10:24:36;99055.38;;;-0.03;87.29
14253;BME280;7210;51.502;10.722;2022-12-11T10:27:15;99034.31;;;-0.08;86.85
14253;BME280;7210;51.502;10.722;2022-12-11T10:29:44;99010.97;;;-0.15;86.06
14253;BME280;7210;51.502;10.722;2022-12-11T10:32:21;99015.56;;;-0.17;85.99
14253;BME280;7210;51.502;10.722;2022-12-11T10:35:00;99026.72;;;-0.17;86.59
14253;BME280;7210;51.502;10.722;2022-12-11T10:37:30;99030.66;;;-0.21;86.62
14253;BME280;7210;51.502;10.722;2022-12-11T10:40:05;99043.91;;;-0.16;87.09
14253;BME280;7210;51.502;10.722;2022-12-11T10:42:32;99047.19;;;-0.14;86.47
14253;BME280;7210;51.502;10.722;2022-12-11T10:45:03;99023.03;;;-0.22;86.37
14253;BME280;7210;51.502;10.722;2022-12-11T10:47:30;99027.88;;;-0.19;86.11
14253;BME280;7210;51.502;10.722;2022-12-11T10:50:01;99035.66;;;-0.11;86.03
14253;BME280;7210;51.502;10.722;2022-12-11T10:52:34;99004.25;;;-0.24;85.77
14253;BME280;7210;51.502;10.722;2022-12-11T10:55:18;99017.50;;;-0.19;85.95
14253;BME280;7210;51.502;10.722;2022-12-11T10:58:01;99035.81;;;-0.13;86.16
14253;BME280;7210;51.502;10.722;2022-12-11T11:00:36;99068.63;;;0.02;86.33
14253;BME280;7210;51.502;10.722;2022-12-11T11:03:16;99052.72;;;0.05;86.59
14253;BME280;7210;51.502;10.722;2022-12-11T11:05:45;99046.72;;;0.05;85.78
14253;BME280;7210;51.502;10.722;2022-12-11T11:08:17;99055.94;;;0.07;86.24
14253;BME280;7210;51.502;10.722;2022-12-11T11:10:54;99068.88;;;0.15;86.14
14253;BME280;7210;51.502;10.722;2022-12-11T11:13:24;99062.53;;;0.18;86.31
14253;BME280;7210;51.502;10.722;2022-12-11T11:16:00;99035.47;;;0.12;85.62
14253;BME280;7210;51.502;10.722;2022-12-11T11:18:30;99038.69;;;0.14;85.65
14253;BME280;7210;51.502;10.722;2022-12-11T11:20:58;98996.25;;;-0.01;85.12
14253;BME280;7210;51.502;10.722;2022-12-11T11:23:28;98992.69;;;0.00;84.33
14253;BME280;7210;51.502;10.722;2022-12-11T11:26:00;98988.00;;;-0.04;84.27
14253;BME280;7210;51.502;10.722;2022-12-11T11:28:33;99005.97;;;0.05;84.72
14253;BME280;7210;51.502;10.722;2022-12-11T11:31:05;98979.63;;;0.08;83.70
14253;BME280;7210;51.502;10.722;2022-12-11T11:33:35;98954.34;;;0.02;83.72
14253;BME280;7210;51.502;10.722;2022-12-11T11:36:06;98969.94;;;0.02;83.82
14253;BME280;7210;51.502;10.722;2022-12-11T11:38:47;98976.41;;;0.06;83.23
14253;BME280;7210;51.502;10.722;2022-12-11T11:41:20;98960.00;;;0.06;83.13
14253;BME280;7210;51.502;10.722;2022-12-11T11:43:55;98962.78;;;0.04;83.56
14253;BME280;7210;51.502;10.722;2022-12-11T11:46:29;98955.84;;;-0.03;83.24
14253;BME280;7210;51.502;10.722;2022-12-11T11:49:13;98979.53;;;0.02;83.52
14253;BME280;7210;51.502;10.722;2022-12-11T11:51:51;98990.63;;;0.10;83.86
14253;BME280;7210;51.502;10.722;2022-12-11T11:54:33;98978.38;;;0.04;83.07
14253;BME280;7210;51.502;10.722;2022-12-11T11:57:13;98985.50;;;0.02;83.17
14253;BME280;7210;51.502;10.722;2022-12-11T11:59:47;98992.91;;;0.13;83.55
14253;BME280;7210;51.502;10.722;2022-12-11T12:02:18;98966.00;;;0.06;82.76
14253;BME280;7210;51.502;10.722;2022-12-11T12:04:47;98947.19;;;0.04;82.22
14253;BME280;7210;51.502;10.722;2022-12-11T12:07:33;98953.03;;;0.06;82.73
14253;BME280;7210;51.502;10.722;2022-12-11T12:10:15;98961.59;;;0.07;83.04
14253;BME280;7210;51.502;10.722;2022-12-11T12:12:54;98940.38;;;0.03;82.28
14253;BME280;7210;51.502;10.722;2022-12-11T12:15:37;98955.25;;;0.09;82.48
14253;BME280;7210;51.502;10.722;2022-12-11T12:18:21;98967.63;;;0.07;82.40
14253;BME280;7210;51.502;10.722;2022-12-11T12:20:59;98982.84;;;0.10;83.42
14253;BME280;7210;51.502;10.722;2022-12-11T12:23:52;99016.56;;;0.18;83.87
14253;BME280;7210;51.502;10.722;2022-12-11T12:26:29;99016.75;;;0.17;83.92
14253;BME280;7210;51.502;10.722;2022-12-11T12:29:10;98985.50;;;0.02;83.12
14253;BME280;7210;51.502;10.722;2022-12-11T12:32:04;98985.88;;;-0.01;83.07
14253;BME280;7210;51.502;10.722;2022-12-11T12:34:58;99016.97;;;0.07;83.54
14253;BME280;7210;51.502;10.722;2022-12-11T12:37:49;99029.16;;;0.07;83.74
14253;BME280;7210;51.502;10.722;2022-12-11T12:40:32;99008.97;;;-0.06;83.92
14253;BME280;7210;51.502;10.722;2022-12-11T12:43:25;99031.03;;;-0.02;83.83
14253;BME280;7210;51.502;10.722;2022-12-11T12:46:11;99015.44;;;-0.02;83.69
14253;BME280;7210;51.502;10.722;2022-12-11T12:48:43;98999.63;;;-0.14;83.01
14253;BME280;7210;51.502;10.722;2022-12-11T12:51:12;98987.78;;;-0.17;82.86
14253;BME280;7210;51.502;10.722;2022-12-11T12:53:45;99006.41;;;-0.13;83.62
14253;BME280;7210;51.502;10.722;2022-12-11T12:56:15;98992.34;;;-0.19;83.34
14253;BME280;7210;51.502;10.722;2022-12-11T12:58:45;98963.31;;;-0.22;82.78
14253;BME280;7210;51.502;10.722;2022-12-11T13:01:18;98969.50;;;-0.23;82.25
14253;BME280;7210;51.502;10.722;2022-12-11T13:03:54;98952.91;;;-0.37;82.17
14253;BME280;7210;51.502;10.722;2022-12-11T13:06:33;98960.16;;;-0.32;82.00
14253;BME280;7210;51.502;10.722;2022-12-11T13:09:18;98982.53;;;-0.31;82.25
14253;BME280;7210;51.502;10.722;2022-12-11T13:11:47;98998.94;;;-0.31;82.51
14253;BME280;7210;51.502;10.722;2022-12-11T13:14:28;99025.47;;;-0.21;82.93
14253;BME280;7210;51.502;10.722;2022-12-11T13:17:25;99027.88;;;-0.19;83.29
14253;BME280;7210;51.502;10.722;2022-12-11T13:20:15;99031.13;;;-0.17;83.32
14253;BME280;7210;51.502;10.722;2022-12-11T13:23:07;99022.06;;;-0.21;83.16
14253;BME280;7210;51.502;10.722;2022-12-11T13:25:48;98992.56;;;-0.28;82.34
14253;BME280;7210;51.502;10.722;2022-12-11T13:28:27;98998.94;;;-0.31;82.08
14253;BME280;7210;51.502;10.722;2022-12-11T13:31:31;98997.19;;;-0.38;82.71